Main page
METAR-TAF:

METAR-TAF

Airports :

Lawrence Municipal Airport

Lawrence, Massachusetts, United States

latitude: 42-42-47N, longitude: 071-07-33W, elevation: 148 ft

Current weather observation

The report was made 57 minutes ago, at 06:54 UTC
Wind 13 mph from the West with gusts up to 21 mph
Temperature 61°F
Humidity 51%
Pressure 29.71 in. Hg
Visibility: 10 miles
Clear sky

METAR: KLWM 210654Z AUTO 27011G18KT 10SM CLR 16/06 A2971 RMK AO2 SLP060 T01610061

Time: 03:51 (07:51 UTC)


TAF: missing

Weather observations and forecasts of more than 4000 airports (METAR and TAF reports).

The available stations are represented by yellow and red dots on the map.

Hover mouse over dot to see the name of the station.

Then click to see weather observations and forecasts.

To change the map : click on the green buttons with a black cross to zoom in, on the green button with a dash to zoom out, or on the green arrows for adjacent maps.


METAR-TAF: